Time;durP1;ratioP1;P1;durP2;ratioP2;P2;SDS_P1;SDS_P2;PMS_P1;PMS_P2;Temp;Humidity;BMP_temperature;BMP_pressure;BME280_temperature;BME280_humidity;BME280_pressure;Samples;Min_cycle;Max_cycle;Signal;HPM_P1;HPM_P2
2022/12/14 00:05:36;;;;;;;39.35;23.52;;;-1.90;99.90;;;;;;5332046;22;20079;-78
2022/12/14 00:08:02;;;;;;;41.72;26.17;;;-1.90;99.90;;;;;;5328982;22;20055;-81
2022/12/14 00:10:28;;;;;;;35.67;23.55;;;-1.90;99.90;;;;;;5034153;28;20060;-81
2022/12/14 00:12:54;;;;;;;39.43;25.20;;;-1.90;99.90;;;;;;5068907;28;20055;-80
2022/12/14 00:15:21;;;;;;;40.37;25.03;;;-1.90;99.90;;;;;;5047181;28;20071;-80
2022/12/14 00:17:47;;;;;;;38.13;23.85;;;-2.00;99.90;;;;;;5037971;28;20040;-80
2022/12/14 00:20:12;;;;;;;39.47;23.43;;;-1.90;99.90;;;;;;5055599;28;20045;-82
2022/12/14 00:22:38;;;;;;;38.13;23.63;;;-1.90;99.90;;;;;;5038018;28;20043;-81
2022/12/14 00:25:04;;;;;;;43.40;25.43;;;-1.90;99.90;;;;;;5054251;28;20045;-80
2022/12/14 00:27:30;;;;;;;36.83;23.63;;;-1.90;99.90;;;;;;5037394;28;20060;-80
2022/12/14 00:29:55;;;;;;;37.83;24.03;;;-1.90;99.90;;;;;;5054120;28;20045;-80
2022/12/14 00:32:21;;;;;;;37.17;24.40;;;-2.00;99.90;;;;;;5054879;28;20048;-80
2022/12/14 00:34:47;;;;;;;37.07;23.90;;;-1.90;99.90;;;;;;5054349;28;20555;-80
2022/12/14 00:43:55;;;;;;;36.40;22.92;;;-1.90;99.90;;;;;;5568728;22;20053;-79
2022/12/14 00:46:20;;;;;;;38.70;24.17;;;-1.90;99.90;;;;;;5055162;28;20131;-81
2022/12/14 00:48:46;;;;;;;40.93;24.87;;;-2.00;99.90;;;;;;5055668;28;20044;-81
2022/12/14 00:51:13;;;;;;;35.30;24.23;;;-2.00;99.90;;;;;;5054506;28;20385;-82
2022/12/14 00:53:39;;;;;;;36.25;24.00;;;-2.00;99.90;;;;;;5054437;28;20392;-81
2022/12/14 00:56:07;;;;;;;40.03;24.80;;;-2.10;99.90;;;;;;5037934;28;20059;-81
2022/12/14 01:13:17;;;;;;;37.67;24.05;;;-2.00;99.90;;;;;;5314379;22;20059;-78
2022/12/14 01:15:42;;;;;;;38.13;23.63;;;-2.20;99.90;;;;;;5298590;22;20057;-78
2022/12/14 01:18:08;;;;;;;41.47;23.37;;;-2.30;99.90;;;;;;5077247;22;20069;-81
2022/12/14 01:20:34;;;;;;;37.40;23.93;;;-2.30;99.90;;;;;;5020125;28;20095;-80
2022/12/14 01:23:00;;;;;;;39.23;23.80;;;-2.30;99.90;;;;;;5053711;28;20415;-80
2022/12/14 01:35:19;;;;;;;36.03;22.88;;;-2.30;99.90;;;;;;5071246;28;20125;-81
2022/12/14 01:37:44;;;;;;;40.13;25.23;;;-2.40;99.90;;;;;;5056399;28;20484;-80
2022/12/14 01:40:10;;;;;;;37.10;23.43;;;-2.50;99.90;;;;;;5074034;28;20049;-81
2022/12/14 01:42:36;;;;;;;38.28;23.83;;;-2.50;99.90;;;;;;5056731;28;20041;-80
2022/12/14 01:45:03;;;;;;;38.77;24.73;;;-2.50;99.90;;;;;;5056643;28;20093;-80
2022/12/14 01:47:41;;;;;;;37.35;23.40;;;-2.60;99.90;;;;;;5074957;28;20080;-80
2022/12/14 01:50:17;;;;;;;35.67;23.80;;;-2.70;99.90;;;;;;5074749;28;20083;-80
2022/12/14 01:52:45;;;;;;;38.58;23.70;;;-2.60;99.90;;;;;;5056750;28;20060;-81
2022/12/14 01:55:23;;;;;;;36.75;23.42;;;-2.60;99.90;;;;;;5074789;28;20106;-81
2022/12/14 01:57:57;;;;;;;42.10;26.13;;;-2.70;99.90;;;;;;5057077;28;20048;-81
2022/12/14 02:00:23;;;;;;;39.15;24.83;;;-2.70;99.90;;;;;;5040786;28;20523;-81
2022/12/14 02:02:56;;;;;;;39.58;23.73;;;-2.60;99.90;;;;;;5073911;28;20493;-80
2022/12/14 02:05:23;;;;;;;33.22;23.10;;;-2.60;99.90;;;;;;5074026;28;20076;-81
2022/12/14 02:07:51;;;;;;;38.08;22.70;;;-2.60;99.90;;;;;;5039853;28;20515;-81
2022/12/14 02:10:17;;;;;;;36.63;23.55;;;-2.60;99.90;;;;;;5056458;28;20063;-81
2022/12/14 02:12:51;;;;;;;37.58;23.67;;;-2.60;99.90;;;;;;5056244;28;20159;-81
2022/12/14 02:15:17;;;;;;;37.42;24.30;;;-2.70;99.90;;;;;;5056757;28;20083;-81
2022/12/14 02:17:45;;;;;;;37.27;24.43;;;-2.80;99.90;;;;;;5055893;28;20048;-81
2022/12/14 02:20:13;;;;;;;39.78;24.05;;;-2.90;99.90;;;;;;5055936;28;20079;-80
2022/12/14 02:22:55;;;;;;;40.92;26.08;;;-2.90;99.90;;;;;;5056152;28;20570;-81
2022/12/14 02:25:30;;;;;;;38.58;24.52;;;-2.90;99.90;;;;;;5074064;28;20048;-81
2022/12/14 02:28:19;;;;;;;36.47;23.90;;;-2.90;99.90;;;;;;5073823;28;20053;-80
2022/12/14 02:30:56;;;;;;;36.00;22.38;;;-3.00;99.90;;;;;;5056912;28;20048;-80
2022/12/14 02:33:21;;;;;;;37.10;23.05;;;-3.00;99.90;;;;;;5073255;28;20057;-82
2022/12/14 02:35:54;;;;;;;36.90;23.27;;;-3.00;99.90;;;;;;5073771;28;20067;-81
2022/12/14 02:38:23;;;;;;;37.65;24.00;;;-3.10;99.90;;;;;;5073424;28;20053;-80
2022/12/14 02:40:57;;;;;;;36.13;23.33;;;-3.10;99.90;;;;;;5056216;28;20048;-81
2022/12/14 02:43:26;;;;;;;38.25;23.55;;;-3.10;99.90;;;;;;5073681;28;20166;-81
2022/12/14 02:46:02;;;;;;;41.03;24.08;;;-3.20;99.90;;;;;;5039367;28;20053;-81
2022/12/14 02:48:44;;;;;;;36.72;22.88;;;-3.10;99.90;;;;;;5073810;28;20067;-81
2022/12/14 02:51:29;;;;;;;36.63;23.25;;;-3.20;99.90;;;;;;5073376;28;20082;-80
2022/12/14 02:53:57;;;;;;;39.47;22.85;;;-3.10;99.90;;;;;;5055490;28;20051;-81
2022/12/14 02:56:35;;;;;;;36.60;23.55;;;-3.10;99.90;;;;;;5055782;28;20133;-80
2022/12/14 02:59:05;;;;;;;38.05;24.27;;;-3.00;99.90;;;;;;5055959;28;20404;-80
2022/12/14 03:01:33;;;;;;;37.03;22.73;;;-3.00;99.90;;;;;;5039082;28;20056;-80
2022/12/14 03:03:59;;;;;;;35.72;22.23;;;-3.10;99.90;;;;;;5055553;28;20049;-80
2022/12/14 03:06:26;;;;;;;36.58;23.23;;;-3.10;99.90;;;;;;5056344;28;20059;-81
2022/12/14 03:09:21;;;;;;;37.22;22.58;;;-3.10;99.90;;;;;;5073248;28;20143;-80
2022/12/14 03:12:06;;;;;;;41.25;24.40;;;-3.10;99.90;;;;;;5051918;28;20052;-80
2022/12/14 03:14:46;;;;;;;41.00;26.00;;;-3.10;99.90;;;;;;5074100;28;20048;-81
2022/12/14 03:17:18;;;;;;;38.53;23.67;;;-3.20;99.90;;;;;;5073261;28;20044;-80
2022/12/14 03:19:52;;;;;;;37.92;24.60;;;-3.20;99.90;;;;;;5072971;28;20484;-80
2022/12/14 03:22:35;;;;;;;38.03;24.08;;;-3.20;99.90;;;;;;5073353;28;20052;-80
2022/12/14 03:25:12;;;;;;;38.05;22.90;;;-3.20;99.90;;;;;;5073650;28;20048;-80
2022/12/14 03:27:45;;;;;;;39.17;25.02;;;-3.20;99.90;;;;;;5073201;28;20131;-80
2022/12/14 03:30:16;;;;;;;38.10;23.90;;;-3.10;99.90;;;;;;5073061;28;20040;-80
2022/12/14 03:32:47;;;;;;;36.17;23.55;;;-3.10;99.90;;;;;;5073088;28;20127;-80
2022/12/14 03:35:24;;;;;;;40.13;24.38;;;-3.10;99.90;;;;;;5074246;28;20411;-80
2022/12/14 03:38:11;;;;;;;37.40;23.50;;;-3.20;99.90;;;;;;5073881;28;20434;-80
2022/12/14 03:40:54;;;;;;;39.15;23.90;;;-3.20;99.90;;;;;;5055141;28;20045;-80
2022/12/14 03:43:47;;;;;;;37.97;24.30;;;-3.30;99.90;;;;;;5056182;28;20472;-80
2022/12/14 03:46:19;;;;;;;38.15;23.27;;;-3.20;99.90;;;;;;5072917;28;20044;-80
2022/12/14 03:48:45;;;;;;;38.25;24.45;;;-3.20;99.90;;;;;;5056117;28;20054;-80
2022/12/14 03:51:42;;;;;;;36.23;23.13;;;-3.30;99.90;;;;;;5074502;28;20498;-80
2022/12/14 03:54:21;;;;;;;35.33;21.95;;;-3.30;99.90;;;;;;5077052;28;20044;-80
2022/12/14 03:56:49;;;;;;;35.17;22.23;;;-3.30;99.90;;;;;;5077199;28;20385;-80
2022/12/14 03:59:32;;;;;;;37.60;22.88;;;-3.30;99.90;;;;;;5076627;28;20056;-80
2022/12/14 04:02:14;;;;;;;36.33;22.30;;;-3.40;99.90;;;;;;5076907;28;20074;-80
2022/12/14 04:05:00;;;;;;;34.92;21.90;;;-3.40;99.90;;;;;;5076643;28;20044;-80
2022/12/14 04:07:37;;;;;;;39.92;23.05;;;-3.20;99.90;;;;;;5059388;28;20347;-80
2022/12/14 04:19:01;;;;;;;34.83;20.75;;;-3.20;99.90;;;;;;5077068;28;20048;-79
2022/12/14 04:21:36;;;;;;;33.97;20.73;;;-3.20;99.90;;;;;;5058454;28;20036;-80
2022/12/14 04:27:00;;;;;;;38.63;22.02;;;-3.30;99.90;;;;;;5076310;28;20475;-80
2022/12/14 04:32:48;;;;;;;33.95;21.45;;;-3.50;99.90;;;;;;5075952;28;20048;-80
2022/12/14 04:35:24;;;;;;;33.85;21.65;;;-3.50;99.90;;;;;;5069550;28;20047;-79
2022/12/14 04:38:01;;;;;;;34.88;21.33;;;-3.50;99.90;;;;;;5076122;28;20052;-80
2022/12/14 04:40:35;;;;;;;36.03;22.13;;;-3.50;99.90;;;;;;5075786;28;20054;-80
2022/12/14 04:43:06;;;;;;;33.13;21.52;;;-3.50;99.90;;;;;;5076070;28;20052;-80
2022/12/14 04:46:05;;;;;;;37.38;22.85;;;-3.50;99.90;;;;;;5075737;28;20036;-79
2022/12/14 04:48:59;;;;;;;35.97;22.15;;;-3.50;99.90;;;;;;5037055;28;20052;-80
2022/12/14 04:51:57;;;;;;;33.58;21.70;;;-3.50;99.90;;;;;;5058720;28;20370;-79
2022/12/14 04:54:29;;;;;;;35.63;20.83;;;-3.60;99.90;;;;;;5066249;28;20055;-80
2022/12/14 04:56:57;;;;;;;36.00;20.50;;;;;;;;;;5076361;28;20161;-80
2022/12/14 04:59:23;;;;;;;36.83;21.83;;;-3.50;99.90;;;;;;5075395;28;20044;-80
2022/12/14 05:02:11;;;;;;;37.15;21.60;;;-3.50;99.90;;;;;;5075810;28;20098;-80
2022/12/14 05:04:54;;;;;;;36.22;21.30;;;-3.50;99.90;;;;;;5075274;28;20040;-80
2022/12/14 05:07:27;;;;;;;34.20;20.42;;;-3.50;99.90;;;;;;5075940;28;20083;-79
2022/12/14 05:10:02;;;;;;;36.75;21.55;;;-3.40;99.90;;;;;;5075617;28;20044;-80
2022/12/14 05:12:47;;;;;;;37.55;23.50;;;-3.60;99.90;;;;;;5057670;28;20129;-80
2022/12/14 05:15:18;;;;;;;34.13;20.98;;;-3.60;99.90;;;;;;5075639;28;20048;-80
2022/12/14 05:17:44;;;;;;;35.38;21.52;;;-3.40;99.90;;;;;;5075098;28;20075;-80
2022/12/14 05:20:16;;;;;;;35.80;23.40;;;-3.60;99.90;;;;;;5057748;28;20056;-80
2022/12/14 05:22:43;;;;;;;35.25;21.77;;;-3.60;99.90;;;;;;5074944;28;20397;-81
2022/12/14 05:25:09;;;;;;;35.90;22.83;;;-3.60;99.90;;;;;;5074750;28;20044;-80
2022/12/14 05:27:35;;;;;;;34.97;21.98;;;-3.40;99.90;;;;;;5040724;28;20182;-80
2022/12/14 05:30:01;;;;;;;35.37;21.10;;;-3.60;99.90;;;;;;5057074;28;20131;-80
2022/12/14 05:32:28;;;;;;;36.87;21.97;;;-3.50;99.90;;;;;;5056938;28;20052;-80
2022/12/14 05:34:54;;;;;;;34.92;22.27;;;-3.50;99.90;;;;;;5074570;28;20301;-80
2022/12/14 05:37:19;;;;;;;35.70;22.17;;;-3.50;99.90;;;;;;5074723;28;20044;-79
2022/12/14 05:39:45;;;;;;;31.87;20.53;;;-3.50;99.90;;;;;;5056952;28;20389;-80
2022/12/14 05:42:11;;;;;;;35.20;21.20;;;-3.50;99.90;;;;;;5074603;28;20451;-80
2022/12/14 05:44:36;;;;;;;34.33;20.87;;;-3.60;99.90;;;;;;5056732;28;20055;-79
2022/12/14 05:47:02;;;;;;;34.53;21.60;;;-3.60;99.90;;;;;;5056427;28;20048;-79
2022/12/14 05:49:28;;;;;;;37.50;20.93;;;-3.60;99.90;;;;;;5057621;28;20048;-79
2022/12/14 05:51:54;;;;;;;35.10;21.50;;;;;;;;;;5074413;28;20050;-79
2022/12/14 05:54:20;;;;;;;34.83;21.45;;;-3.50;99.90;;;;;;5074258;28;20051;-79
2022/12/14 05:56:45;;;;;;;38.27;23.50;;;-3.50;99.90;;;;;;5074336;28;20040;-79
2022/12/14 05:59:14;;;;;;;39.83;23.57;;;-3.60;99.90;;;;;;5040108;28;20048;-79
2022/12/14 06:01:41;;;;;;;39.60;24.10;;;-3.60;99.90;;;;;;5074260;28;20052;-78
2022/12/14 06:04:06;;;;;;;42.53;25.35;;;-3.60;99.90;;;;;;5074110;28;20045;-79
2022/12/14 06:06:33;;;;;;;42.63;24.13;;;-3.60;99.90;;;;;;5056369;28;20123;-79
2022/12/14 06:08:58;;;;;;;36.70;22.35;;;-3.60;99.90;;;;;;5073986;28;20051;-79
2022/12/14 06:11:24;;;;;;;37.30;23.80;;;-3.70;99.90;;;;;;5074444;28;20048;-79
2022/12/14 06:13:50;;;;;;;39.47;24.13;;;-3.60;99.90;;;;;;5073547;28;20075;-79
2022/12/14 06:16:22;;;;;;;42.53;23.98;;;-3.60;99.90;;;;;;5057024;28;20049;-79
2022/12/14 06:18:53;;;;;;;38.65;23.30;;;-3.60;99.90;;;;;;5057202;28;20052;-80
2022/12/14 06:21:21;;;;;;;39.22;23.13;;;-3.70;99.90;;;;;;5074778;28;20049;-79
2022/12/14 06:23:47;;;;;;;39.85;22.52;;;-3.70;99.90;;;;;;5074489;28;20049;-78
2022/12/14 06:26:13;;;;;;;36.87;22.43;;;-3.70;99.90;;;;;;5073799;28;20058;-79
2022/12/14 06:28:39;;;;;;;36.38;20.90;;;-3.70;99.90;;;;;;5073472;28;20485;-79
2022/12/14 06:31:05;;;;;;;31.77;20.23;;;-3.70;99.90;;;;;;5074083;28;20087;-79
2022/12/14 06:33:36;;;;;;;34.45;21.52;;;-3.70;99.90;;;;;;5073407;28;20062;-78
2022/12/14 06:36:02;;;;;;;34.38;22.13;;;-3.60;99.90;;;;;;5056345;28;20045;-79
2022/12/14 06:38:28;;;;;;;37.67;22.80;;;-3.60;99.90;;;;;;5073643;28;20133;-79
2022/12/14 06:40:53;;;;;;;41.57;25.07;;;-3.70;99.90;;;;;;5074346;28;20123;-79
2022/12/14 06:43:19;;;;;;;38.97;24.73;;;-3.60;99.90;;;;;;5055805;28;20500;-79
2022/12/14 06:45:45;;;;;;;39.20;24.07;;;-3.70;99.90;;;;;;5055663;28;20036;-79
2022/12/14 06:48:11;;;;;;;38.63;22.20;;;-3.70;99.90;;;;;;5074298;28;20083;-79
2022/12/14 06:50:36;;;;;;;37.07;22.53;;;-3.70;99.90;;;;;;5073565;28;20037;-79
2022/12/14 06:53:02;;;;;;;35.37;21.30;;;-3.70;99.90;;;;;;5073454;28;20044;-79
2022/12/14 06:55:28;;;;;;;35.87;23.50;;;-3.80;99.90;;;;;;5073511;28;20041;-79
2022/12/14 06:57:54;;;;;;;33.03;20.98;;;-3.80;99.90;;;;;;5073452;28;20083;-79
2022/12/14 07:00:22;;;;;;;36.60;21.38;;;-3.90;99.90;;;;;;5073459;28;20408;-79
2022/12/14 07:02:48;;;;;;;35.47;21.10;;;-3.90;99.90;;;;;;5073399;28;20052;-79
2022/12/14 07:05:15;;;;;;;32.47;20.52;;;-4.00;99.90;;;;;;5073431;28;20503;-79
2022/12/14 07:07:42;;;;;;;34.15;21.38;;;-4.00;99.90;;;;;;5073611;28;20051;-79
2022/12/14 07:10:08;;;;;;;39.30;24.65;;;-4.00;99.90;;;;;;5054843;28;20095;-79
2022/12/14 07:12:34;;;;;;;36.72;22.17;;;-4.00;99.90;;;;;;5072959;28;20079;-79
2022/12/14 07:15:00;;;;;;;35.70;20.63;;;-4.00;99.90;;;;;;5055491;28;20123;-79
2022/12/14 07:17:26;;;;;;;35.90;22.55;;;-4.00;99.90;;;;;;5073821;28;20183;-79
2022/12/14 07:19:52;;;;;;;35.10;22.40;;;-4.00;99.90;;;;;;5073240;28;20119;-79
2022/12/14 07:22:18;;;;;;;35.80;22.00;;;-4.00;99.90;;;;;;5038914;28;20675;-79
2022/12/14 07:24:44;;;;;;;34.78;21.83;;;-3.90;99.90;;;;;;5073866;28;20044;-79
2022/12/14 07:27:10;;;;;;;35.63;21.13;;;-4.00;99.90;;;;;;5077052;28;20380;-80
2022/12/14 07:29:35;;;;;;;35.13;21.23;;;-4.00;99.90;;;;;;5059361;28;20132;-79
2022/12/14 07:32:01;;;;;;;35.53;22.80;;;-3.90;99.90;;;;;;5077098;28;20044;-79
2022/12/14 07:34:27;;;;;;;33.57;21.60;;;-4.00;99.90;;;;;;5059457;28;20488;-79
2022/12/14 07:36:53;;;;;;;37.93;22.33;;;-3.90;99.90;;;;;;5059176;28;20087;-79
2022/12/14 07:39:20;;;;;;;36.78;22.00;;;-3.90;99.90;;;;;;5059331;28;20381;-79
2022/12/14 07:41:46;;;;;;;42.55;23.63;;;-3.90;99.90;;;;;;5077003;28;20082;-79
2022/12/14 07:44:12;;;;;;;40.28;24.52;;;-4.00;99.90;;;;;;5076784;28;20083;-79
2022/12/14 07:46:39;;;;;;;42.13;23.98;;;-3.90;99.90;;;;;;5076892;28;20087;-79
2022/12/14 07:49:05;;;;;;;38.13;22.60;;;-3.90;99.90;;;;;;5076928;28;20048;-79
2022/12/14 07:51:41;;;;;;;40.30;24.38;;;-4.00;99.90;;;;;;5076466;28;20522;-78
2022/12/14 07:54:07;;;;;;;32.78;20.33;;;-4.00;99.90;;;;;;5077308;28;20080;-78
2022/12/14 07:56:38;;;;;;;38.33;22.50;;;-4.10;99.90;;;;;;5076341;28;20530;-79
2022/12/14 07:59:07;;;;;;;35.75;21.65;;;-4.10;99.90;;;;;;5077173;28;20381;-79
2022/12/14 08:01:34;;;;;;;39.80;23.20;;;-4.00;99.90;;;;;;5076570;28;20370;-75
2022/12/14 08:04:08;;;;;;;42.50;23.98;;;-4.20;99.90;;;;;;5076379;28;20040;-79
2022/12/14 08:06:34;;;;;;;40.53;24.75;;;-4.20;99.90;;;;;;5076595;28;20048;-78
2022/12/14 08:09:00;;;;;;;39.42;24.40;;;-4.10;99.90;;;;;;5042293;28;20132;-78
2022/12/14 08:11:27;;;;;;;43.38;26.02;;;-4.00;99.90;;;;;;5076377;28;20055;-78
2022/12/14 08:14:01;;;;;;;44.03;25.70;;;-4.00;99.90;;;;;;5042136;28;20440;-78
2022/12/14 08:16:28;;;;;;;44.45;25.25;;;-4.00;99.90;;;;;;5076375;28;20043;-78
2022/12/14 08:18:54;;;;;;;42.10;25.23;;;-3.90;99.90;;;;;;5077073;28;20132;-79
2022/12/14 08:21:22;;;;;;;44.95;25.48;;;-3.90;99.90;;;;;;5076118;28;20095;-78
2022/12/14 08:23:49;;;;;;;43.75;25.77;;;-3.90;99.90;;;;;;5076158;28;20040;-78
2022/12/14 08:26:15;;;;;;;48.05;27.17;;;-3.80;99.90;;;;;;5076101;28;20044;-77
2022/12/14 08:28:40;;;;;;;43.65;24.75;;;-3.80;99.90;;;;;;5041458;28;20063;-77
2022/12/14 08:31:15;;;;;;;48.97;25.90;;;-3.80;99.90;;;;;;5075970;28;20045;-78
2022/12/14 08:33:41;;;;;;;46.03;27.02;;;-3.80;99.90;;;;;;5041987;28;20061;-76
2022/12/14 08:36:12;;;;;;;44.13;26.77;;;-3.80;99.90;;;;;;5075516;28;20091;-77
2022/12/14 08:38:39;;;;;;;40.63;25.38;;;-4.00;99.90;;;;;;5075912;28;20048;-76
2022/12/14 08:41:06;;;;;;;43.63;25.30;;;-3.70;99.90;;;;;;5057918;28;20538;-80
2022/12/14 08:43:33;;;;;;;41.42;25.45;;;-3.70;99.90;;;;;;5058362;28;20048;-76
2022/12/14 08:45:59;;;;;;;41.55;25.60;;;-3.80;99.90;;;;;;5057922;28;20093;-76
2022/12/14 08:48:25;;;;;;;39.88;25.50;;;-3.80;99.90;;;;;;5075597;28;20044;-77
2022/12/14 08:50:51;;;;;;;43.23;26.10;;;-3.80;99.90;;;;;;5075576;28;20051;-76
2022/12/14 08:53:17;;;;;;;45.53;26.73;;;-3.80;99.90;;;;;;5076289;28;20381;-77
2022/12/14 08:55:43;;;;;;;47.70;23.70;;;-3.70;99.90;;;;;;5075601;28;20044;-77
2022/12/14 08:58:09;;;;;;;49.72;26.13;;;-3.80;99.90;;;;;;5075482;28;20395;-77
2022/12/14 09:00:37;;;;;;;55.13;25.20;;;-3.70;99.90;;;;;;5058017;28;20127;-76
2022/12/14 09:03:04;;;;;;;46.80;24.92;;;-3.70;99.90;;;;;;5075377;28;20056;-75
2022/12/14 09:05:29;;;;;;;46.25;23.35;;;-3.70;99.90;;;;;;5057355;28;20424;-76
2022/12/14 09:07:55;;;;;;;43.40;23.33;;;-3.70;99.90;;;;;;5075272;28;20044;-78
2022/12/14 09:10:21;;;;;;;41.87;23.87;;;-3.60;99.90;;;;;;5058307;28;20147;-78
2022/12/14 09:12:47;;;;;;;37.85;22.02;;;-3.60;99.90;;;;;;5057391;28;20075;-76
2022/12/14 09:15:13;;;;;;;38.17;22.80;;;-3.50;99.90;;;;;;5057326;28;20045;-76
2022/12/14 09:17:39;;;;;;;37.10;21.87;;;-3.50;99.90;;;;;;5075126;28;20091;-76
2022/12/14 09:20:05;;;;;;;35.90;20.90;;;-3.50;99.90;;;;;;5057003;28;20041;-76
2022/12/14 09:22:31;;;;;;;37.30;21.75;;;-3.50;99.90;;;;;;5074934;28;20134;-76
2022/12/14 09:24:57;;;;;;;34.80;19.57;;;;;;;;;;5075007;28;20132;-76
2022/12/14 09:27:23;;;;;;;39.30;22.20;;;-3.50;99.90;;;;;;5074883;28;20080;-76
2022/12/14 09:29:49;;;;;;;34.27;20.30;;;-3.40;99.90;;;;;;5074538;28;20083;-76
2022/12/14 09:32:15;;;;;;;36.77;20.57;;;-3.40;99.90;;;;;;5075269;28;20044;-76
2022/12/14 09:34:41;;;;;;;34.63;20.38;;;-3.30;99.90;;;;;;5074270;28;20113;-78
2022/12/14 09:37:06;;;;;;;37.47;23.20;;;-3.30;99.90;;;;;;5056606;28;20048;-78
2022/12/14 09:39:34;;;;;;;37.10;22.70;;;-3.30;99.90;;;;;;5074850;28;20476;-75
2022/12/14 09:42:25;;;;;;;39.45;23.85;;;-3.30;99.90;;;;;;5074658;28;20468;-77
2022/12/14 09:45:03;;;;;;;34.22;19.65;;;-3.20;99.90;;;;;;5074690;28;20079;-77
2022/12/14 09:47:38;;;;;;;35.05;21.25;;;-3.10;99.90;;;;;;5074423;28;20052;-77
2022/12/14 09:50:25;;;;;;;34.15;20.90;;;-3.10;99.90;;;;;;5057089;28;20063;-74
2022/12/14 09:52:59;;;;;;;36.67;20.33;;;-3.10;99.90;;;;;;5074173;28;20518;-76
2022/12/14 09:55:41;;;;;;;32.63;19.02;;;-3.10;99.90;;;;;;5074334;28;20040;-78
2022/12/14 09:58:19;;;;;;;33.30;18.17;;;-3.00;99.90;;;;;;5074954;28;20531;-77
2022/12/14 10:00:59;;;;;;;37.20;20.13;;;-3.00;99.90;;;;;;5074166;28;20120;-77
2022/12/14 10:03:28;;;;;;;35.63;18.73;;;-3.00;99.90;;;;;;5074062;28;20052;-76
2022/12/14 10:06:05;;;;;;;31.15;19.00;;;-2.90;99.90;;;;;;5074570;28;20048;-76
2022/12/14 10:08:40;;;;;;;31.58;19.55;;;-2.90;99.90;;;;;;5074643;28;20044;-76
2022/12/14 10:11:34;;;;;;;37.55;21.40;;;-2.80;99.90;;;;;;5056280;28;20117;-80
2022/12/14 10:14:21;;;;;;;33.42;17.38;;;-2.80;99.90;;;;;;5074575;28;20040;-78
2022/12/14 10:17:02;;;;;;;31.85;19.10;;;-2.80;99.90;;;;;;5073756;28;20605;-76
2022/12/14 10:19:54;;;;;;;31.60;18.60;;;-2.80;99.90;;;;;;5056814;28;20462;-76
2022/12/14 10:22:29;;;;;;;29.63;17.48;;;-2.80;99.90;;;;;;5073965;28;20044;-77
2022/12/14 10:25:09;;;;;;;;;;;-2.80;99.90;;;;;;5074789;28;20101;-77
2022/12/14 10:27:37;;;;;;;32.97;17.75;;;-2.70;99.90;;;;;;5073830;28;19920;-76
2022/12/14 10:30:06;;;;;;;31.77;18.42;;;;;;;;;;5074087;28;20123;-72
2022/12/14 10:32:38;;;;;;;33.83;17.60;;;-2.60;99.90;;;;;;5073747;28;20048;-74
2022/12/14 10:35:33;;;;;;;32.30;17.85;;;-2.60;99.90;;;;;;5074152;28;20059;-73
2022/12/14 10:38:16;;;;;;;30.77;17.02;;;-2.60;99.90;;;;;;5074299;28;20397;-74
2022/12/14 10:40:48;;;;;;;27.27;16.48;;;-2.50;99.90;;;;;;5073686;28;20052;-73
2022/12/14 10:43:42;;;;;;;29.85;16.25;;;-2.50;99.90;;;;;;5073819;28;20048;-74
2022/12/14 10:46:29;;;;;;;28.73;15.38;;;-2.50;99.90;;;;;;5056558;28;20083;-76
2022/12/14 10:49:02;;;;;;;29.02;16.23;;;-2.40;99.90;;;;;;5056710;28;20064;-74
2022/12/14 10:51:38;;;;;;;28.40;16.55;;;-2.40;99.90;;;;;;5073521;28;20079;-73
2022/12/14 10:54:09;;;;;;;28.45;16.27;;;-2.30;99.90;;;;;;5074029;28;20041;-74
2022/12/14 10:56:39;;;;;;;27.10;16.13;;;-2.40;99.90;;;;;;5073905;28;20045;-74
2022/12/14 10:59:22;;;;;;;27.27;16.48;;;-2.40;99.90;;;;;;5073770;28;20048;-73
2022/12/14 11:01:53;;;;;;;26.33;15.63;;;-2.40;99.90;;;;;;5073945;28;20048;-74
2022/12/14 11:04:35;;;;;;;29.13;16.95;;;-2.30;99.90;;;;;;5073364;28;20132;-73
2022/12/14 11:07:07;;;;;;;26.48;15.57;;;-2.30;99.90;;;;;;5074012;28;20059;-73
2022/12/14 11:09:33;;;;;;;25.30;14.88;;;-2.30;99.90;;;;;;5073917;28;20052;-78
2022/12/14 11:12:19;;;;;;;24.17;14.23;;;-2.30;99.90;;;;;;5073281;28;20123;-78
2022/12/14 11:15:00;;;;;;;27.83;15.75;;;-2.20;99.90;;;;;;5073340;28;20040;-77
2022/12/14 11:17:38;;;;;;;28.33;15.45;;;-2.20;99.90;;;;;;5056445;28;20044;-78
2022/12/14 11:20:26;;;;;;;27.58;15.27;;;-2.20;99.90;;;;;;5038897;28;20048;-77
2022/12/14 11:23:04;;;;;;;27.08;14.60;;;-2.20;99.90;;;;;;5073248;28;20048;-76
2022/12/14 11:25:41;;;;;;;24.98;14.57;;;-2.20;99.90;;;;;;5038590;28;20092;-76
2022/12/14 11:28:44;;;;;;;22.63;13.40;;;-2.10;99.90;;;;;;5073192;28;20058;-75
2022/12/14 11:31:19;;;;;;;25.30;14.35;;;-2.10;99.90;;;;;;5073188;28;20044;-75
2022/12/14 11:33:48;;;;;;;24.77;15.03;;;-2.10;99.90;;;;;;5055402;28;20048;-77
2022/12/14 11:36:33;;;;;;;29.02;14.95;;;-1.90;99.90;;;;;;5073704;28;20489;-75
2022/12/14 11:39:13;;;;;;;23.27;12.55;;;-2.00;99.90;;;;;;5073240;28;20048;-77
2022/12/14 11:41:45;;;;;;;27.17;16.25;;;-2.00;99.90;;;;;;5073897;28;20045;-77
2022/12/14 11:44:13;;;;;;;24.83;14.35;;;-2.00;99.90;;;;;;5073386;28;20085;-77
2022/12/14 11:46:45;;;;;;;22.88;13.82;;;-2.00;99.90;;;;;;5073029;28;20083;-77
2022/12/14 11:49:24;;;;;;;29.02;15.70;;;-2.00;99.90;;;;;;5056020;28;20053;-78
2022/12/14 11:52:07;;;;;;;31.75;19.63;;;-2.00;99.90;;;;;;5072932;28;20076;-76
2022/12/14 11:54:38;;;;;;;25.75;15.55;;;-1.90;99.90;;;;;;5073481;28;20045;-77
2022/12/14 11:57:09;;;;;;;26.17;14.77;;;-2.10;99.90;;;;;;5056119;28;20060;-78
2022/12/14 11:59:53;;;;;;;25.27;15.27;;;-1.80;99.90;;;;;;5072779;28;20037;-76
2022/12/14 12:02:29;;;;;;;28.38;16.58;;;-1.80;99.90;;;;;;5073836;28;20148;-75
2022/12/14 12:05:19;;;;;;;27.80;15.87;;;-1.80;99.90;;;;;;5055921;28;20048;-76
2022/12/14 12:07:57;;;;;;;23.92;14.07;;;-1.80;99.90;;;;;;5055678;28;20344;-76
2022/12/14 12:10:50;;;;;;;22.73;13.60;;;-1.80;99.90;;;;;;5072824;28;20040;-76
2022/12/14 12:13:39;;;;;;;24.63;13.10;;;-1.80;99.90;;;;;;5072254;28;20089;-75
2022/12/14 12:16:12;;;;;;;25.85;14.13;;;-1.80;99.90;;;;;;5076745;28;20370;-81
2022/12/14 12:18:51;;;;;;;22.70;13.70;;;-1.70;99.90;;;;;;5077162;28;20044;-78
2022/12/14 12:21:21;;;;;;;20.45;12.93;;;-1.70;99.90;;;;;;5059480;28;20052;-78
2022/12/14 12:23:56;;;;;;;23.10;13.38;;;-1.70;99.90;;;;;;5076155;28;20074;-78
2022/12/14 12:26:47;;;;;;;24.98;13.88;;;-1.70;99.90;;;;;;5076278;28;20544;-78
2022/12/14 12:29:43;;;;;;;26.08;14.45;;;-1.70;99.90;;;;;;5076226;28;20048;-79
2022/12/14 12:32:24;;;;;;;20.25;13.18;;;-1.70;99.90;;;;;;5076096;28;20045;-80
2022/12/14 12:34:53;;;;;;;20.90;12.55;;;-1.70;99.90;;;;;;5054337;28;20056;-80
2022/12/14 12:37:42;;;;;;;21.75;13.45;;;-1.60;99.90;;;;;;5056004;28;20049;-78
2022/12/14 12:40:33;;;;;;;21.00;12.15;;;-1.60;99.90;;;;;;5055448;28;20053;-74
2022/12/14 12:43:28;;;;;;;24.40;13.55;;;-1.60;99.90;;;;;;5056498;28;20106;-77
2022/12/14 12:46:10;;;;;;;20.73;12.73;;;-1.60;99.90;;;;;;5056052;28;20501;-77
2022/12/14 12:48:39;;;;;;;21.35;13.02;;;-1.40;99.90;;;;;;5055073;28;20059;-76
2022/12/14 12:51:27;;;;;;;22.13;12.02;;;-1.50;99.90;;;;;;5055735;28;20045;-76
2022/12/14 12:54:07;;;;;;;20.98;11.98;;;-1.50;99.90;;;;;;5055371;28;20045;-76
2022/12/14 12:56:50;;;;;;;21.85;11.90;;;-1.50;99.90;;;;;;5056167;28;20049;-82
2022/12/14 12:59:23;;;;;;;20.73;12.30;;;-1.50;99.90;;;;;;5023095;28;20056;-83
2022/12/14 13:01:53;;;;;;;19.70;11.93;;;-1.50;99.90;;;;;;5055546;28;20106;-82
2022/12/14 13:04:32;;;;;;;22.48;12.95;;;-1.50;99.90;;;;;;5055507;28;20033;-81
2022/12/14 13:07:14;;;;;;;20.90;12.90;;;-1.40;99.90;;;;;;5055448;28;20474;-81
2022/12/14 13:09:48;;;;;;;24.13;14.30;;;-1.40;99.90;;;;;;5054683;28;20511;-81
2022/12/14 13:12:34;;;;;;;23.10;14.15;;;-1.40;99.90;;;;;;5055398;28;20053;-82
2022/12/14 13:15:02;;;;;;;23.35;14.65;;;-1.40;99.90;;;;;;5054183;28;20041;-81
2022/12/14 13:17:37;;;;;;;22.42;13.65;;;-1.40;99.90;;;;;;5038496;28;20124;-81
2022/12/14 13:20:13;;;;;;;22.63;12.80;;;-1.40;99.90;;;;;;5055291;28;20049;-82
2022/12/14 13:22:39;;;;;;;20.40;12.45;;;-1.40;99.90;;;;;;5053943;28;20045;-81
2022/12/14 13:25:30;;;;;;;21.13;12.85;;;-1.50;99.90;;;;;;5054651;28;20045;-81
2022/12/14 13:28:33;;;;;;;23.38;13.80;;;-1.40;99.90;;;;;;5055039;28;20049;-80
2022/12/14 13:31:34;;;;;;;20.35;12.07;;;-1.40;99.90;;;;;;5054849;28;20053;-79
2022/12/14 13:34:21;;;;;;;23.23;13.38;;;-1.50;99.90;;;;;;5060268;28;20449;-77
2022/12/14 13:36:53;;;;;;;19.50;12.10;;;-1.40;99.90;;;;;;5074841;28;20055;-76
2022/12/14 13:39:37;;;;;;;20.52;13.13;;;-1.40;99.90;;;;;;5074783;28;20044;-76
2022/12/14 13:42:17;;;;;;;24.25;13.55;;;-1.40;99.90;;;;;;5057853;28;20110;-76
2022/12/14 13:45:01;;;;;;;21.83;11.88;;;-1.50;99.90;;;;;;5074565;28;20049;-76
2022/12/14 13:47:38;;;;;;;22.27;12.57;;;-1.50;99.90;;;;;;5074571;28;20055;-76